Time;durP1;ratioP1;P1;durP2;ratioP2;P2;SDS_P1;SDS_P2;PMS_P1;PMS_P2;Temp;Humidity;BMP_temperature;BMP_pressure;BME280_temperature;BME280_humidity;BME280_pressure;Samples;Min_cycle;Max_cycle;Signal;HPM_P1;HPM_P2
2021/11/12 00:12:24;;;;;;;36.23;22.67;;;;;;;;;;5034743;28;20475;-69
2021/11/12 00:14:51;;;;;;;31.63;21.73;;;;;;;;;;5042874;28;20045;-69
2021/11/12 00:17:17;;;;;;;30.20;22.30;;;;;;;;;;5041766;28;20028;-70
2021/11/12 00:19:43;;;;;;;31.77;22.57;;;;;;;;;;5032540;28;20029;-69
2021/11/12 00:22:08;;;;;;;30.93;21.87;;;;;;;;;;5047320;28;20410;-69
2021/11/12 00:24:33;;;;;;;32.63;22.87;;;;;;;;;;5051711;28;20381;-69
2021/11/12 00:27:01;;;;;;;34.57;23.40;;;;;;;;;;5041890;28;20095;-70
2021/11/12 00:29:26;;;;;;;30.80;21.70;;;;;;;;;;5062826;28;20025;-69
2021/11/12 00:32:05;;;;;;;33.60;22.70;;;;;;;;;;5048526;28;20035;-69
2021/11/12 00:39:30;;;;;;;32.03;23.30;;;;;;;;;;5095173;27;20036;-70
2021/11/12 00:44:44;;;;;;;34.60;23.17;;;;;;;;;;5090092;28;20499;-69
2021/11/12 00:53:41;;;;;;;27.50;20.67;;;;;;;;;;5079982;28;20106;-69
2021/11/12 00:55:30;;;;;;;27.07;18.97;;;;;;;;;;5088335;28;20031;-70
2021/11/12 00:57:56;;;;;;;31.33;21.70;;;;;;;;;;5089400;28;20016;-70
2021/11/12 01:00:22;;;;;;;31.03;21.13;;;;;;;;;;5088802;28;20035;-70
2021/11/12 01:02:48;;;;;;;35.90;21.97;;;;;;;;;;5082437;28;20495;-69
2021/11/12 01:05:13;;;;;;;28.20;19.93;;;;;;;;;;5093161;28;20020;-69
2021/11/12 01:07:39;;;;;;;29.03;20.23;;;;;;;;;;5083882;28;20021;-69
2021/11/12 01:10:05;;;;;;;36.70;20.47;;;;;;;;;;5080233;28;20037;-70
2021/11/12 01:12:31;;;;;;;31.20;20.83;;;;;;;;;;5094917;28;20032;-70
2021/11/12 01:14:56;;;;;;;27.30;19.77;;;;;;;;;;5093861;28;20024;-68
2021/11/12 01:17:21;;;;;;;26.03;19.10;;;;;;;;;;5090351;28;20031;-69
2021/11/12 01:19:47;;;;;;;28.40;18.80;;;;;;;;;;5083546;28;20028;-69
2021/11/12 01:22:12;;;;;;;29.57;19.83;;;;;;;;;;5099384;28;20476;-69
2021/11/12 01:24:38;;;;;;;28.50;21.33;;;;;;;;;;5078915;28;20035;-69
2021/11/12 01:27:03;;;;;;;31.33;20.97;;;;;;;;;;5093350;28;20283;-68
2021/11/12 01:29:29;;;;;;;30.73;20.97;;;;;;;;;;5080022;28;20361;-69
2021/11/12 01:31:54;;;;;;;31.23;20.67;;;;;;;;;;5091280;28;20526;-69
2021/11/12 01:34:19;;;;;;;27.17;19.43;;;;;;;;;;5082830;28;20454;-69
2021/11/12 01:36:45;;;;;;;30.00;20.87;;;;;;;;;;5085228;28;20040;-69
2021/11/12 01:39:14;;;;;;;27.23;19.63;;;;;;;;;;5078270;28;20019;-69
2021/11/12 01:41:44;;;;;;;29.33;19.13;;;;;;;;;;5073928;28;20028;-69
2021/11/12 01:44:10;;;;;;;28.40;20.17;;;;;;;;;;5078281;28;20029;-69
2021/11/12 01:49:18;;;;;;;32.20;21.73;;;;;;;;;;5079400;28;20036;-68
2021/11/12 01:51:49;;;;;;;29.47;20.60;;;;;;;;;;5083527;28;20040;-68
2021/11/12 01:59:18;;;;;;;30.33;19.83;;;;;;;;;;5085774;28;20046;-68
2021/11/12 02:01:49;;;;;;;28.10;19.67;;;;;;;;;;5098413;28;20052;-68
2021/11/12 02:04:20;;;;;;;32.20;21.70;;;;;;;;;;5089658;28;20024;-68
2021/11/12 02:06:45;;;;;;;31.93;20.67;;;;;;;;;;5090395;28;20438;-68
2021/11/12 02:09:21;;;;;;;31.10;20.67;;;;;;;;;;5077735;28;20024;-68
2021/11/12 02:11:52;;;;;;;32.73;20.70;;;;;;;;;;5086930;28;20032;-69
2021/11/12 02:14:18;;;;;;;31.70;23.17;;;;;;;;;;5093069;28;20392;-69
2021/11/12 02:17:02;;;;;;;31.00;22.37;;;;;;;;;;5081333;28;20460;-69
2021/11/12 02:19:27;;;;;;;29.37;20.67;;;;;;;;;;5078072;28;20053;-68
2021/11/12 02:22:01;;;;;;;31.70;20.27;;;;;;;;;;5071101;28;20024;-67
2021/11/12 02:24:26;;;;;;;31.13;20.77;;;;;;;;;;5083464;28;20032;-68
2021/11/12 02:26:56;;;;;;;29.33;21.03;;;;;;;;;;5087619;28;20144;-68
2021/11/12 02:29:23;;;;;;;35.57;23.27;;;;;;;;;;5090533;28;20035;-68
2021/11/12 02:31:48;;;;;;;30.50;21.70;;;;;;;;;;5077092;28;20043;-68
2021/11/12 02:34:14;;;;;;;30.90;22.23;;;;;;;;;;5077588;28;20475;-68
2021/11/12 02:36:40;;;;;;;31.47;22.87;;;;;;;;;;5084382;28;20514;-69
2021/11/12 02:39:06;;;;;;;34.43;23.80;;;;;;;;;;5086460;28;20096;-68
2021/11/12 02:41:32;;;;;;;34.80;23.80;;;;;;;;;;5079938;28;20028;-68
2021/11/12 02:43:58;;;;;;;36.33;25.03;;;;;;;;;;5081406;28;20107;-68
2021/11/12 02:46:25;;;;;;;33.93;22.90;;;;;;;;;;5082662;28;20115;-69
2021/11/12 02:48:51;;;;;;;35.00;23.43;;;;;;;;;;5067181;28;20070;-68
2021/11/12 02:51:20;;;;;;;39.30;25.60;;;;;;;;;;5084889;28;20024;-68
2021/11/12 02:53:47;;;;;;;34.03;23.43;;;;;;;;;;5081861;28;20016;-68
2021/11/12 02:56:17;;;;;;;33.20;22.47;;;;;;;;;;5079329;28;20074;-69
2021/11/12 02:58:42;;;;;;;28.60;21.00;;;;;;;;;;5076227;28;20067;-68
2021/11/12 03:01:08;;;;;;;27.30;21.27;;;;;;;;;;5090750;28;20483;-69
2021/11/12 03:03:34;;;;;;;28.17;20.53;;;;;;;;;;5080071;28;20022;-69
2021/11/12 03:05:59;;;;;;;28.20;18.87;;;;;;;;;;5076247;28;20024;-69
2021/11/12 03:08:25;;;;;;;22.70;17.40;;;;;;;;;;5086409;28;20027;-68
2021/11/12 03:10:54;;;;;;;25.73;18.57;;;;;;;;;;5091538;28;20491;-69
2021/11/12 03:13:19;;;;;;;30.40;20.07;;;;;;;;;;5084391;28;20031;-69
2021/11/12 03:15:44;;;;;;;28.57;20.03;;;;;;;;;;5079822;28;20190;-69
2021/11/12 03:18:10;;;;;;;30.63;20.67;;;;;;;;;;5063866;28;20020;-68
2021/11/12 03:20:38;;;;;;;36.33;22.60;;;;;;;;;;5089697;28;20401;-68
2021/11/12 03:23:08;;;;;;;34.00;21.70;;;;;;;;;;5073767;28;20020;-68
2021/11/12 03:25:42;;;;;;;32.97;21.60;;;;;;;;;;5082657;28;20028;-68
2021/11/12 04:04:32;;;;;;;36.20;22.73;;;;;;;;;;5013816;28;20026;-69
2021/11/12 04:41:45;;;;;;;28.70;19.00;;;;;;;;;;5094509;28;20085;-70
2021/11/12 05:44:32;;;;;;;30.43;20.50;;;;;;;;;;5093196;28;20127;-69
2021/11/12 05:52:16;;;;;;;31.50;21.13;;;;;;;;;;5083519;28;20035;-69
2021/11/12 05:57:25;;;;;;;30.33;21.30;;;;;;;;;;5087166;28;20490;-69
2021/11/12 05:59:51;;;;;;;32.23;20.77;;;;;;;;;;5113621;28;20102;-69
2021/11/12 06:02:16;;;;;;;32.90;20.63;;;;;;;;;;5095602;28;20016;-69
2021/11/12 06:04:42;;;;;;;34.23;22.27;;;;;;;;;;5095366;28;20024;-69
2021/11/12 06:07:08;;;;;;;31.00;19.10;;;;;;;;;;5091119;28;20035;-69
2021/11/12 06:09:33;;;;;;;32.50;19.10;;;;;;;;;;5087848;28;20134;-69
2021/11/12 06:11:58;;;;;;;30.30;19.37;;;;;;;;;;5093028;28;20538;-70
2021/11/12 06:14:26;;;;;;;32.77;19.83;;;;;;;;;;5093575;28;20047;-71
2021/11/12 06:16:52;;;;;;;31.90;19.40;;;;;;;;;;5091078;28;20085;-70
2021/11/12 06:19:18;;;;;;;31.37;20.33;;;;;;;;;;5091002;28;20020;-70
2021/11/12 06:21:44;;;;;;;29.03;19.67;;;;;;;;;;5085321;28;20170;-71
2021/11/12 06:24:10;;;;;;;27.87;18.20;;;;;;;;;;5091681;28;20043;-70
2021/11/12 06:26:35;;;;;;;27.40;17.87;;;;;;;;;;5087613;28;20031;-70
2021/11/12 06:29:00;;;;;;;28.70;18.23;;;;;;;;;;5102057;28;20383;-71
2021/11/12 06:31:26;;;;;;;31.73;20.83;;;;;;;;;;5072879;28;20098;-71
2021/11/12 06:33:51;;;;;;;29.93;20.83;;;;;;;;;;5091499;28;20592;-71
2021/11/12 06:36:18;;;;;;;31.37;19.33;;;;;;;;;;5090079;28;20012;-71
2021/11/12 06:38:43;;;;;;;24.33;17.20;;;;;;;;;;5098158;28;20024;-71
2021/11/12 06:41:11;;;;;;;30.03;18.80;;;;;;;;;;5091882;28;20106;-71
2021/11/12 06:43:52;;;;;;;28.73;19.57;;;;;;;;;;5103425;28;20037;-70
2021/11/12 06:51:46;;;;;;;32.50;22.70;;;;;;;;;;5082462;28;20036;-72
2021/11/12 06:54:12;;;;;;;32.70;22.37;;;;;;;;;;5095154;28;20437;-71
2021/11/12 06:56:37;;;;;;;35.40;22.97;;;;;;;;;;5088747;28;20017;-71
2021/11/12 06:59:03;;;;;;;36.90;22.63;;;;;;;;;;5076379;28;20468;-72
2021/11/12 07:01:30;;;;;;;33.63;22.33;;;;;;;;;;5074763;28;20039;-71
2021/11/12 07:03:55;;;;;;;34.20;21.47;;;;;;;;;;5115703;27;20028;-71
2021/11/12 07:06:21;;;;;;;31.43;20.57;;;;;;;;;;5097971;28;20024;-71
2021/11/12 07:08:46;;;;;;;31.83;20.63;;;;;;;;;;5094226;28;20082;-71
2021/11/12 07:11:12;;;;;;;28.90;19.00;;;;;;;;;;5063904;28;20032;-71
2021/11/12 07:13:37;;;;;;;28.07;18.93;;;;;;;;;;5098417;28;20007;-72
2021/11/12 07:16:03;;;;;;;35.10;20.80;;;;;;;;;;5109790;28;20047;-71
2021/11/12 07:18:29;;;;;;;28.93;20.70;;;;;;;;;;5094681;28;20020;-72
2021/11/12 07:20:55;;;;;;;32.10;22.00;;;;;;;;;;5091304;28;20032;-71
2021/11/12 07:23:23;;;;;;;33.93;22.93;;;;;;;;;;5072192;28;20175;-71
2021/11/12 07:25:48;;;;;;;33.13;22.10;;;;;;;;;;5071155;28;20024;-71
2021/11/12 07:28:13;;;;;;;29.67;20.13;;;;;;;;;;5076578;28;20070;-71
2021/11/12 07:30:41;;;;;;;28.97;19.30;;;;;;;;;;5080666;28;20028;-71
2021/11/12 07:33:07;;;;;;;25.43;17.40;;;;;;;;;;5090197;28;20243;-71
2021/11/12 07:35:37;;;;;;;25.13;17.93;;;;;;;;;;5091526;28;20066;-71
2021/11/12 07:38:11;;;;;;;28.87;19.63;;;;;;;;;;5091973;28;20020;-71
2021/11/12 07:44:05;;;;;;;23.73;17.93;;;;;;;;;;5072061;28;20060;-71
2021/11/12 07:48:37;;;;;;;29.40;20.53;;;;;;;;;;5075603;28;20060;-72
2021/11/12 07:51:02;;;;;;;25.40;18.70;;;;;;;;;;5091940;28;20055;-71
2021/11/12 07:53:28;;;;;;;26.80;20.13;;;;;;;;;;5072098;28;20457;-71
2021/11/12 07:55:56;;;;;;;29.10;18.60;;;;;;;;;;5069338;28;20046;-71
2021/11/12 07:58:22;;;;;;;23.20;17.03;;;;;;;;;;5083877;28;20475;-71
2021/11/12 08:00:47;;;;;;;23.97;17.93;;;;;;;;;;5093529;28;20012;-71
2021/11/12 08:03:14;;;;;;;32.27;19.67;;;;;;;;;;5086958;28;20119;-71
2021/11/12 08:05:41;;;;;;;24.93;18.93;;;;;;;;;;5073402;28;20111;-71
2021/11/12 08:08:08;;;;;;;23.63;18.00;;;;;;;;;;5057783;28;20008;-71
2021/11/12 08:10:39;;;;;;;24.60;17.70;;;;;;;;;;5092304;28;20036;-71
2021/11/12 08:13:11;;;;;;;24.33;17.33;;;;;;;;;;5093848;28;20531;-71
2021/11/12 08:21:02;;;;;;;23.60;17.73;;;;;;;;;;5054942;28;20553;-71
2021/11/12 08:29:01;;;;;;;37.63;24.87;;;;;;;;;;5072600;28;20092;-71
2021/11/12 08:31:54;;;;;;;38.92;24.23;;;;;;;;;;5052551;28;20132;-71
2021/11/12 08:34:37;;;;;;;28.87;19.53;;;;;;;;;;5072325;28;20024;-71
2021/11/12 08:37:17;;;;;;;25.17;17.73;;;;;;;;;;5037599;28;20067;-71
2021/11/12 08:42:19;;;;;;;26.87;18.70;;;;;;;;;;5066572;28;20024;-72
2021/11/12 08:44:56;;;;;;;23.92;17.48;;;;;;;;;;5071943;28;20494;-72
2021/11/12 08:47:31;;;;;;;27.77;18.23;;;;;;;;;;5053590;28;20028;-71
2021/11/12 08:49:58;;;;;;;19.25;13.68;;;;;;;;;;5054619;28;20029;-71
2021/11/12 08:52:24;;;;;;;29.23;18.37;;;;;;;;;;5060484;28;20115;-72
2021/11/12 08:54:49;;;;;;;26.80;17.90;;;;;;;;;;5054986;28;20152;-71
2021/11/12 08:57:16;;;;;;;28.60;18.93;;;;;;;;;;5068224;28;20032;-72
2021/11/12 08:59:49;;;;;;;29.17;20.67;;;;;;;;;;5074480;28;20082;-72
2021/11/12 09:02:19;;;;;;;25.67;18.40;;;;;;;;;;5093461;28;20138;-71
2021/11/12 09:04:46;;;;;;;26.73;18.83;;;;;;;;;;5094024;28;20030;-71
2021/11/12 09:07:12;;;;;;;26.30;17.97;;;;;;;;;;5079048;28;20549;-72
2021/11/12 09:09:37;;;;;;;25.37;19.57;;;;;;;;;;5072832;28;20554;-72
2021/11/12 09:12:04;;;;;;;27.00;19.10;;;;;;;;;;5085814;28;20399;-72
2021/11/12 09:14:30;;;;;;;25.23;18.93;;;;;;;;;;5093763;28;20024;-72
2021/11/12 09:17:03;;;;;;;25.20;18.97;;;;;;;;;;5090732;28;20061;-72
2021/11/12 09:19:28;;;;;;;28.57;19.20;;;;;;;;;;5073894;28;20028;-72
2021/11/12 09:21:54;;;;;;;26.43;19.17;;;;;;;;;;5083514;28;20503;-72
2021/11/12 09:24:19;;;;;;;25.67;18.30;;;;;;;;;;5072259;28;20384;-71
2021/11/12 09:26:44;;;;;;;22.07;17.53;;;;;;;;;;5071802;28;20432;-72
2021/11/12 09:29:10;;;;;;;26.27;17.77;;;;;;;;;;5072529;28;20479;-72
2021/11/12 09:31:35;;;;;;;21.97;17.07;;;;;;;;;;5087136;28;20031;-72
2021/11/12 09:34:01;;;;;;;24.73;18.23;;;;;;;;;;5093614;28;20016;-72
2021/11/12 09:36:26;;;;;;;21.67;17.53;;;;;;;;;;5093050;28;20411;-72
2021/11/12 09:38:52;;;;;;;22.87;19.23;;;;;;;;;;5077804;28;20078;-72
2021/11/12 09:41:17;;;;;;;21.50;16.27;;;;;;;;;;5109800;27;20023;-72
2021/11/12 09:43:43;;;;;;;18.57;15.90;;;;;;;;;;5092596;28;20020;-72
2021/11/12 09:46:10;;;;;;;20.83;16.23;;;;;;;;;;5093777;28;20016;-72
2021/11/12 09:48:36;;;;;;;19.20;15.73;;;;;;;;;;5088400;28;20052;-72
2021/11/12 09:51:01;;;;;;;20.33;15.40;;;;;;;;;;5071972;28;20052;-72
2021/11/12 09:53:26;;;;;;;17.30;13.73;;;;;;;;;;5077289;28;20451;-73
2021/11/12 09:55:54;;;;;;;14.98;12.13;;;;;;;;;;5071144;28;20016;-73
2021/11/12 09:58:19;;;;;;;15.52;13.63;;;;;;;;;;5078519;28;20473;-73
2021/11/12 10:00:46;;;;;;;14.35;12.82;;;;;;;;;;5080279;28;20040;-73
2021/11/12 10:03:11;;;;;;;16.38;12.38;;;;;;;;;;5083794;28;20017;-73
2021/11/12 10:05:39;;;;;;;14.45;12.18;;;;;;;;;;5087939;28;20480;-73
2021/11/12 10:08:25;;;;;;;15.27;12.30;;;;;;;;;;5092373;28;20088;-73
2021/11/12 10:10:52;;;;;;;13.32;11.18;;;;;;;;;;5076446;28;20434;-72
2021/11/12 10:13:20;;;;;;;15.45;12.65;;;;;;;;;;5084188;28;20029;-72
2021/11/12 10:15:50;;;;;;;12.80;11.45;;;;;;;;;;5072668;28;20012;-73
2021/11/12 10:18:15;;;;;;;16.17;13.07;;;;;;;;;;5072854;28;20019;-73
2021/11/12 10:20:55;;;;;;;13.90;12.23;;;;;;;;;;5086058;28;20024;-73
2021/11/12 10:23:20;;;;;;;13.93;12.00;;;;;;;;;;5073694;28;20027;-73
2021/11/12 10:25:55;;;;;;;13.32;11.77;;;;;;;;;;5073664;28;20016;-73
2021/11/12 10:28:41;;;;;;;14.32;12.40;;;;;;;;;;5081520;28;20084;-73
2021/11/12 10:31:17;;;;;;;13.35;11.45;;;;;;;;;;5087692;28;20042;-72
2021/11/12 10:33:43;;;;;;;14.55;11.88;;;;;;;;;;5090449;28;20028;-72
2021/11/12 10:36:09;;;;;;;14.95;11.38;;;;;;;;;;5082417;28;20070;-73
2021/11/12 10:38:41;;;;;;;13.00;11.70;;;;;;;;;;5071945;28;20027;-72
2021/11/12 10:41:21;;;;;;;13.07;11.68;;;;;;;;;;5071991;28;20027;-73
2021/11/12 10:43:47;;;;;;;13.68;12.23;;;;;;;;;;5081687;28;20052;-72
2021/11/12 10:46:12;;;;;;;15.13;13.18;;;;;;;;;;5089874;28;20553;-73
2021/11/12 10:48:39;;;;;;;15.48;13.80;;;;;;;;;;5090615;28;20024;-68
2021/11/12 10:51:18;;;;;;;14.63;13.02;;;;;;;;;;5090269;28;20024;-68
2021/11/12 10:53:53;;;;;;;14.88;13.23;;;;;;;;;;5083682;28;20070;-68
2021/11/12 10:56:19;;;;;;;15.60;13.25;;;;;;;;;;5112657;27;20035;-68
2021/11/12 10:58:57;;;;;;;14.57;12.30;;;;;;;;;;5070300;28;20502;-68
2021/11/12 11:01:32;;;;;;;13.68;12.13;;;;;;;;;;5071484;28;20025;-67
2021/11/12 11:04:13;;;;;;;13.80;12.40;;;;;;;;;;5072138;28;20099;-68
2021/11/12 11:06:38;;;;;;;13.98;12.52;;;;;;;;;;5083841;28;20533;-68
2021/11/12 11:09:03;;;;;;;14.85;13.10;;;;;;;;;;5085704;28;20024;-66
2021/11/12 11:11:37;;;;;;;14.82;13.32;;;;;;;;;;5091822;28;20028;-66
2021/11/12 11:14:02;;;;;;;14.40;12.90;;;;;;;;;;5091409;28;20028;-67
2021/11/12 11:16:29;;;;;;;14.63;13.13;;;;;;;;;;5081186;28;20027;-67
2021/11/12 11:18:55;;;;;;;14.63;13.07;;;;;;;;;;5071832;28;20025;-66
2021/11/12 11:23:51;;;;;;;15.25;13.80;;;;;;;;;;5083559;28;20016;-66
2021/11/12 11:26:17;;;;;;;16.55;13.90;;;;;;;;;;5085339;28;20020;-67
2021/11/12 11:28:44;;;;;;;14.45;13.05;;;;;;;;;;5075554;28;20040;-67
2021/11/12 11:31:10;;;;;;;15.02;13.43;;;;;;;;;;5075258;28;20047;-67
2021/11/12 11:33:37;;;;;;;14.98;13.38;;;;;;;;;;5094909;28;20016;-71
2021/11/12 11:36:04;;;;;;;25.67;14.55;;;;;;;;;;5095233;28;20044;-70
2021/11/12 11:38:30;;;;;;;14.38;12.88;;;;;;;;;;5093637;28;20028;-70
2021/11/12 11:40:56;;;;;;;15.13;13.63;;;;;;;;;;5093529;28;20118;-70
2021/11/12 11:43:23;;;;;;;14.77;13.27;;;;;;;;;;5087709;28;20052;-71
2021/11/12 11:45:49;;;;;;;15.57;14.18;;;;;;;;;;5073667;28;20072;-71
2021/11/12 11:48:15;;;;;;;14.68;13.25;;;;;;;;;;5090060;28;20020;-70
2021/11/12 11:50:49;;;;;;;14.95;13.48;;;;;;;;;;5090120;28;20057;-71
2021/11/12 11:53:25;;;;;;;13.65;12.35;;;;;;;;;;5074878;28;20488;-70
2021/11/12 11:55:52;;;;;;;14.10;12.65;;;;;;;;;;5093012;28;20016;-71
2021/11/12 11:58:32;;;;;;;14.52;13.18;;;;;;;;;;5095386;28;20039;-69
2021/11/12 12:01:15;;;;;;;15.55;14.05;;;;;;;;;;5089904;28;20026;-69
2021/11/12 12:03:41;;;;;;;15.40;13.90;;;;;;;;;;5081701;28;20028;-71
2021/11/12 12:06:09;;;;;;;14.98;13.48;;;;;;;;;;5085717;28;20178;-70
2021/11/12 12:08:34;;;;;;;16.25;14.55;;;;;;;;;;5092927;28;20048;-70
2021/11/12 12:11:18;;;;;;;16.02;14.32;;;;;;;;;;5075961;28;20125;-70
2021/11/12 12:13:43;;;;;;;16.08;14.57;;;;;;;;;;5075190;28;20103;-70
2021/11/12 12:16:09;;;;;;;16.08;14.57;;;;;;;;;;5073750;28;20098;-70
2021/11/12 12:18:43;;;;;;;17.10;15.30;;;;;;;;;;5080280;28;20033;-69
2021/11/12 13:25:31;;;;;;;19.48;16.00;;;;;;;;;;5051509;28;20516;-70
2021/11/12 13:28:15;;;;;;;20.63;14.68;;;;;;;;;;5050466;28;20053;-71
2021/11/12 13:30:42;;;;;;;19.05;14.10;;;;;;;;;;5037493;28;20033;-70
2021/11/12 13:33:23;;;;;;;17.30;15.05;;;;;;;;;;5038734;28;20034;-69
2021/11/12 13:35:48;;;;;;;19.27;15.32;;;;;;;;;;5041693;28;20051;-70
2021/11/12 13:38:13;;;;;;;19.70;14.95;;;;;;;;;;5085742;28;20441;-71
2021/11/12 13:40:39;;;;;;;23.40;15.27;;;;;;;;;;5074747;28;20108;-70
2021/11/12 13:43:04;;;;;;;18.00;14.50;;;;;;;;;;5079354;28;20017;-71
2021/11/12 13:45:29;;;;;;;19.30;14.48;;;;;;;;;;5090773;28;20024;-71
2021/11/12 13:48:10;;;;;;;18.95;14.13;;;;;;;;;;5090983;28;20027;-71
2021/11/12 13:50:39;;;;;;;19.48;14.25;;;;;;;;;;5092792;28;20027;-70
2021/11/12 13:53:04;;;;;;;18.90;13.00;;;;;;;;;;5088146;28;20035;-69
2021/11/12 13:55:33;;;;;;;20.17;13.55;;;;;;;;;;5076287;28;20029;-71
2021/11/12 13:57:59;;;;;;;16.85;13.20;;;;;;;;;;5072645;28;20031;-70
2021/11/12 14:00:28;;;;;;;15.43;12.85;;;;;;;;;;5077134;28;20031;-70
2021/11/12 14:02:55;;;;;;;18.10;13.38;;;;;;;;;;5093409;28;20043;-71
2021/11/12 14:05:21;;;;;;;14.27;11.98;;;;;;;;;;5091616;28;20027;-71
2021/11/12 14:07:47;;;;;;;17.13;12.77;;;;;;;;;;5078228;28;20032;-70
2021/11/12 14:10:13;;;;;;;16.15;12.55;;;;;;;;;;5069725;28;20036;-70
2021/11/12 14:12:56;;;;;;;16.95;12.15;;;;;;;;;;5092689;28;20024;-70
2021/11/12 14:15:34;;;;;;;15.98;12.25;;;;;;;;;;5091334;28;20020;-70
2021/11/12 14:18:06;;;;;;;15.65;10.90;;;;;;;;;;5091234;28;20085;-70
2021/11/12 14:20:33;;;;;;;13.45;9.93;;;;;;;;;;5072656;28;20027;-70
2021/11/12 14:23:09;;;;;;;11.85;9.65;;;;;;;;;;5068578;28;20024;-70
2021/11/12 14:25:53;;;;;;;16.83;9.77;;;;;;;;;;5080025;28;20024;-69
2021/11/12 14:28:27;;;;;;;15.45;10.05;;;;;;;;;;5078988;28;20063;-70
2021/11/12 14:34:47;;;;;;;16.50;12.40;;;;;;;;;;5063484;28;20051;-70
2021/11/12 14:36:54;;;;;;;14.95;11.55;;;;;;;;;;5080232;28;20480;-69
2021/11/12 14:39:36;;;;;;;20.10;12.23;;;;;;;;;;5074754;28;20503;-69
2021/11/12 14:44:58;;;;;;;16.83;12.63;;;;;;;;;;5072374;28;20035;-69
2021/11/12 14:47:30;;;;;;;19.37;13.87;;;;;;;;;;5084251;28;20031;-70
2021/11/12 14:50:09;;;;;;;20.95;14.35;;;;;;;;;;5089322;28;20023;-70
2021/11/12 14:52:34;;;;;;;17.42;13.98;;;;;;;;;;5063993;28;20027;-70
2021/11/12 14:55:06;;;;;;;19.48;15.13;;;;;;;;;;5066062;28;20383;-70
2021/11/12 14:57:34;;;;;;;18.30;15.27;;;;;;;;;;5089828;28;20035;-70
2021/11/12 15:00:09;;;;;;;21.23;16.38;;;;;;;;;;5089664;28;20028;-70
2021/11/12 15:02:35;;;;;;;20.35;16.30;;;;;;;;;;5090822;28;20035;-69
2021/11/12 15:05:01;;;;;;;23.08;16.92;;;;;;;;;;5091934;28;20086;-70
2021/11/12 15:07:36;;;;;;;22.80;17.70;;;;;;;;;;5090111;28;20012;-69
2021/11/12 15:10:02;;;;;;;23.35;18.77;;;;;;;;;;5084160;28;20025;-71
2021/11/12 15:12:28;;;;;;;22.55;17.98;;;;;;;;;;5089035;28;20400;-70
2021/11/12 15:14:59;;;;;;;24.02;18.85;;;;;;;;;;5074071;28;20091;-71
2021/11/12 15:17:25;;;;;;;25.73;18.80;;;;;;;;;;5092229;28;20092;-69
2021/11/12 15:19:50;;;;;;;23.02;18.60;;;;;;;;;;5088488;28;20107;-69
2021/11/12 15:24:58;;;;;;;24.77;19.17;;;;;;;;;;5071722;28;20033;-70
2021/11/12 15:27:42;;;;;;;26.33;20.40;;;;;;;;;;5071503;28;20060;-70
2021/11/12 15:30:22;;;;;;;24.25;19.40;;;;;;;;;;5085773;28;20028;-70
2021/11/12 15:33:30;;;;;;;28.05;20.38;;;;;;;;;;5104035;28;20036;-69
2021/11/12 15:35:36;;;;;;;27.88;20.55;;;;;;;;;;5063318;28;20150;-70
2021/11/12 15:40:42;;;;;;;27.95;19.73;;;;;;;;;;5085569;28;20077;-70
2021/11/12 15:46:10;;;;;;;28.42;20.45;;;;;;;;;;5091718;28;20024;-70
2021/11/12 15:48:39;;;;;;;25.75;20.45;;;;;;;;;;5090516;28;20499;-71
2021/11/12 15:56:36;;;;;;;28.70;20.33;;;;;;;;;;5071469;28;20083;-70
2021/11/12 15:59:45;;;;;;;28.08;20.27;;;;;;;;;;5070715;28;20404;-71
2021/11/12 16:07:55;;;;;;;32.75;22.38;;;;;;;;;;5091433;28;20039;-70
2021/11/12 16:24:06;;;;;;;29.15;20.70;;;;;;;;;;5075849;28;20446;-72
2021/11/12 16:26:32;;;;;;;29.60;22.13;;;;;;;;;;5082208;28;20016;-68
2021/11/12 16:31:57;;;;;;;32.95;24.00;;;;;;;;;;5071418;28;20085;-70
2021/11/12 16:34:24;;;;;;;31.08;23.00;;;;;;;;;;5093328;28;20039;-70
2021/11/12 16:36:57;;;;;;;33.42;25.08;;;;;;;;;;5093571;28;20031;-70
2021/11/12 16:39:47;;;;;;;34.53;23.90;;;;;;;;;;5104919;28;20067;-70
2021/11/12 16:45:09;;;;;;;30.40;24.15;;;;;;;;;;5090234;28;20446;-70
2021/11/12 16:52:37;;;;;;;32.95;24.85;;;;;;;;;;5086085;28;20024;-71
2021/11/12 17:08:29;;;;;;;36.28;25.67;;;;;;;;;;5043762;28;20152;-69
2021/11/12 17:11:11;;;;;;;38.88;26.92;;;;;;;;;;5042521;28;20112;-68
2021/11/12 17:46:44;;;;;;;40.25;26.45;;;;;;;;;;4974446;28;20141;-69
2021/11/12 18:03:14;;;;;;;38.30;27.75;;;;;;;;;;5007334;28;20029;-69
2021/11/12 21:45:54;;;;;;;10.80;7.10;;;;;;;;;;5098631;28;20066;-69
2021/11/12 21:48:20;;;;;;;9.70;7.25;;;;;;;;;;5105624;28;20036;-69
2021/11/12 21:50:47;;;;;;;9.98;7.53;;;;;;;;;;5092067;28;20798;-69
2021/11/12 21:53:12;;;;;;;10.07;7.45;;;;;;;;;;5079777;28;20048;-69
2021/11/12 21:55:37;;;;;;;13.00;8.27;;;;;;;;;;5075227;28;20052;-68
2021/11/12 21:58:03;;;;;;;11.13;7.63;;;;;;;;;;5091050;28;20131;-69
2021/11/12 22:00:29;;;;;;;8.90;6.68;;;;;;;;;;5087992;28;20091;-68
2021/11/12 22:02:55;;;;;;;12.48;8.57;;;;;;;;;;5085977;28;20369;-69
2021/11/12 22:05:21;;;;;;;13.57;9.73;;;;;;;;;;5093368;28;20402;-69
2021/11/12 22:07:46;;;;;;;10.43;7.70;;;;;;;;;;5091728;28;20594;-70
2021/11/12 22:10:11;;;;;;;12.52;7.95;;;;;;;;;;5079372;28;20149;-70
2021/11/12 22:12:37;;;;;;;10.43;6.97;;;;;;;;;;5079028;28;20024;-69
2021/11/12 22:15:03;;;;;;;10.75;6.80;;;;;;;;;;5089521;28;20528;-68
2021/11/12 22:17:29;;;;;;;10.10;7.10;;;;;;;;;;5092773;28;20027;-69
2021/11/12 22:19:54;;;;;;;7.82;5.97;;;;;;;;;;5092988;28;20384;-67
2021/11/12 22:22:19;;;;;;;6.97;5.30;;;;;;;;;;5081277;28;20033;-68
2021/11/12 22:24:44;;;;;;;7.65;5.32;;;;;;;;;;5091095;28;20024;-68
2021/11/12 22:27:10;;;;;;;9.13;5.72;;;;;;;;;;5078614;28;20560;-68
2021/11/12 22:29:35;;;;;;;7.85;5.68;;;;;;;;;;5091609;28;20031;-67
2021/11/12 22:32:01;;;;;;;7.50;4.85;;;;;;;;;;5092409;28;20031;-68
2021/11/12 22:34:26;;;;;;;8.07;5.07;;;;;;;;;;5096606;28;20036;-67
2021/11/12 22:36:52;;;;;;;6.47;5.10;;;;;;;;;;5092120;28;20103;-68
2021/11/12 22:39:18;;;;;;;7.80;5.03;;;;;;;;;;5090410;28;20016;-68
2021/11/12 22:41:43;;;;;;;8.68;5.63;;;;;;;;;;5113140;28;20024;-68
2021/11/12 22:44:10;;;;;;;8.60;6.10;;;;;;;;;;5098715;28;20118;-68
2021/11/12 22:46:35;;;;;;;7.68;5.43;;;;;;;;;;5079833;28;20103;-68
2021/11/12 22:49:00;;;;;;;8.05;5.10;;;;;;;;;;5084737;28;20056;-68
2021/11/12 22:51:27;;;;;;;9.93;7.15;;;;;;;;;;5086364;28;20032;-68
2021/11/12 22:53:52;;;;;;;10.75;8.00;;;;;;;;;;5069642;28;20019;-68
2021/11/12 22:56:17;;;;;;;12.10;9.05;;;;;;;;;;5092403;28;20028;-67
2021/11/12 22:58:42;;;;;;;9.90;6.25;;;;;;;;;;5090964;28;20023;-68
2021/11/12 23:01:11;;;;;;;9.68;5.63;;;;;;;;;;5087313;28;20017;-68
2021/11/12 23:03:36;;;;;;;9.38;5.47;;;;;;;;;;5083580;28;20186;-69
2021/11/12 23:06:02;;;;;;;7.80;5.18;;;;;;;;;;5091822;28;20032;-69
2021/11/12 23:08:27;;;;;;;7.60;5.18;;;;;;;;;;5084056;28;20023;-69
2021/11/12 23:10:52;;;;;;;8.38;5.30;;;;;;;;;;5091949;28;20358;-69
2021/11/12 23:13:18;;;;;;;9.38;5.40;;;;;;;;;;5090652;28;20073;-69
2021/11/12 23:15:43;;;;;;;8.40;5.80;;;;;;;;;;5092035;28;20023;-69
2021/11/12 23:18:08;;;;;;;9.77;6.03;;;;;;;;;;5090520;28;20016;-68
2021/11/12 23:20:34;;;;;;;8.80;6.32;;;;;;;;;;5091763;28;20499;-69
2021/11/12 23:22:59;;;;;;;10.30;7.68;;;;;;;;;;5077107;28;20017;-69
2021/11/12 23:25:25;;;;;;;11.13;8.43;;;;;;;;;;5076049;28;20025;-69
2021/11/12 23:27:50;;;;;;;13.95;10.00;;;;;;;;;;5086018;28;20405;-68
2021/11/12 23:30:15;;;;;;;18.65;12.60;;;;;;;;;;5092822;28;20651;-69
2021/11/12 23:32:41;;;;;;;19.80;14.52;;;;;;;;;;5102039;28;20508;-69
2021/11/12 23:35:06;;;;;;;20.60;16.00;;;;;;;;;;5092206;28;20028;-69
2021/11/12 23:37:31;;;;;;;21.20;16.35;;;;;;;;;;5095261;28;20027;-68
2021/11/12 23:39:57;;;;;;;25.38;17.90;;;;;;;;;;5079270;28;20020;-70
2021/11/12 23:42:22;;;;;;;25.92;18.23;;;;;;;;;;5091219;28;20032;-68
2021/11/12 23:44:47;;;;;;;24.45;17.38;;;;;;;;;;5091863;28;20468;-69
2021/11/12 23:47:12;;;;;;;23.15;17.48;;;;;;;;;;5090617;28;20454;-68
2021/11/12 23:49:38;;;;;;;24.20;16.20;;;;;;;;;;5090936;28;20484;-69
2021/11/12 23:52:03;;;;;;;21.70;15.77;;;;;;;;;;5087397;28;20033;-69
2021/11/12 23:54:28;;;;;;;16.43;12.43;;;;;;;;;;5081609;28;20017;-69
2021/11/12 23:56:54;;;;;;;22.47;16.10;;;;;;;;;;5071461;28;20024;-69
2021/11/12 23:59:19;;;;;;;21.63;16.13;;;;;;;;;;5086359;28;20055;-69
